sensor_id;sensor_type;location;lat;lon;timestamp;pressure;altitude;pressure_sealevel;temperature;humidity
34586;BME280;20816;50.950;11.108;2022-07-18T00:00:09;99327.34;;;15.45;66.15
34586;BME280;20816;50.950;11.108;2022-07-18T00:02:36;99326.59;;;15.41;66.25
34586;BME280;20816;50.950;11.108;2022-07-18T00:05:04;99330.91;;;15.43;66.12
34586;BME280;20816;50.950;11.108;2022-07-18T00:07:30;99325.78;;;15.37;66.11
34586;BME280;20816;50.950;11.108;2022-07-18T00:09:57;99328.50;;;15.36;66.32
34586;BME280;20816;50.950;11.108;2022-07-18T00:12:24;99319.16;;;15.24;66.80
34586;BME280;20816;50.950;11.108;2022-07-18T00:14:50;99320.19;;;15.19;67.37
34586;BME280;20816;50.950;11.108;2022-07-18T00:17:17;99323.16;;;15.08;67.81
34586;BME280;20816;50.950;11.108;2022-07-18T00:19:43;99324.72;;;15.15;67.38
34586;BME280;20816;50.950;11.108;2022-07-18T00:22:10;99321.16;;;15.16;66.89
34586;BME280;20816;50.950;11.108;2022-07-18T00:24:37;99319.41;;;15.15;66.52
34586;BME280;20816;50.950;11.108;2022-07-18T00:27:06;99321.22;;;15.13;66.59
34586;BME280;20816;50.950;11.108;2022-07-18T00:29:34;99328.50;;;15.05;66.97
34586;BME280;20816;50.950;11.108;2022-07-18T00:32:06;99324.88;;;15.09;67.04
34586;BME280;20816;50.950;11.108;2022-07-18T00:34:34;99320.59;;;15.03;67.04
34586;BME280;20816;50.950;11.108;2022-07-18T00:37:01;99321.53;;;15.02;67.19
34586;BME280;20816;50.950;11.108;2022-07-18T00:39:27;99320.50;;;15.08;67.28
34586;BME280;20816;50.950;11.108;2022-07-18T00:41:54;99316.13;;;15.07;67.98
34586;BME280;20816;50.950;11.108;2022-07-18T00:44:24;99314.34;;;15.07;68.04
34586;BME280;20816;50.950;11.108;2022-07-18T00:46:53;99314.34;;;15.06;68.15
34586;BME280;20816;50.950;11.108;2022-07-18T00:49:20;99312.03;;;14.95;68.08
34586;BME280;20816;50.950;11.108;2022-07-18T00:51:47;99319.34;;;14.85;68.12
34586;BME280;20816;50.950;11.108;2022-07-18T00:54:14;99315.09;;;14.80;68.00
34586;BME280;20816;50.950;11.108;2022-07-18T00:56:41;99309.69;;;14.84;67.67
34586;BME280;20816;50.950;11.108;2022-07-18T00:59:09;99308.72;;;14.87;67.73
34586;BME280;20816;50.950;11.108;2022-07-18T01:01:36;99313.91;;;14.90;67.91
34586;BME280;20816;50.950;11.108;2022-07-18T01:04:19;99299.00;;;14.88;68.01
34586;BME280;20816;50.950;11.108;2022-07-18T01:06:46;99304.13;;;14.94;68.08
34586;BME280;20816;50.950;11.108;2022-07-18T01:09:14;99305.97;;;14.92;69.14
34586;BME280;20816;50.950;11.108;2022-07-18T01:11:43;99315.94;;;14.80;69.33
34586;BME280;20816;50.950;11.108;2022-07-18T01:14:10;99313.72;;;14.65;69.22
34586;BME280;20816;50.950;11.108;2022-07-18T01:16:37;99319.22;;;14.57;69.47
34586;BME280;20816;50.950;11.108;2022-07-18T01:19:04;99324.72;;;14.50;70.19
34586;BME280;20816;50.950;11.108;2022-07-18T01:21:31;99317.69;;;14.49;69.52
34586;BME280;20816;50.950;11.108;2022-07-18T01:23:58;99317.78;;;14.46;69.19
34586;BME280;20816;50.950;11.108;2022-07-18T01:26:25;99312.38;;;14.49;68.14
34586;BME280;20816;50.950;11.108;2022-07-18T01:28:51;99308.88;;;14.50;68.10
34586;BME280;20816;50.950;11.108;2022-07-18T01:31:18;99312.31;;;14.52;67.55
34586;BME280;20816;50.950;11.108;2022-07-18T01:33:46;99314.22;;;14.47;68.10
34586;BME280;20816;50.950;11.108;2022-07-18T01:36:13;99319.63;;;14.41;68.88
34586;BME280;20816;50.950;11.108;2022-07-18T01:38:39;99314.56;;;14.31;70.07
34586;BME280;20816;50.950;11.108;2022-07-18T01:41:06;99312.97;;;14.24;70.66
34586;BME280;20816;50.950;11.108;2022-07-18T01:43:33;99316.66;;;14.19;70.61
34586;BME280;20816;50.950;11.108;2022-07-18T01:46:00;99327.44;;;14.11;70.62
34586;BME280;20816;50.950;11.108;2022-07-18T01:48:29;99317.69;;;14.13;69.90
34586;BME280;20816;50.950;11.108;2022-07-18T01:50:55;99321.41;;;14.05;70.55
34586;BME280;20816;50.950;11.108;2022-07-18T01:53:22;99325.03;;;14.00;70.50
34586;BME280;20816;50.950;11.108;2022-07-18T01:55:51;99320.66;;;14.01;70.63
34586;BME280;20816;50.950;11.108;2022-07-18T01:58:17;99320.91;;;13.89;71.72
34586;BME280;20816;50.950;11.108;2022-07-18T02:00:44;99327.22;;;13.83;72.38
34586;BME280;20816;50.950;11.108;2022-07-18T02:03:11;99317.53;;;13.82;72.71
34586;BME280;20816;50.950;11.108;2022-07-18T02:05:37;99320.13;;;13.85;72.39
34586;BME280;20816;50.950;11.108;2022-07-18T02:08:04;99321.97;;;13.82;72.51
34586;BME280;20816;50.950;11.108;2022-07-18T02:10:31;99323.91;;;13.73;73.26
34586;BME280;20816;50.950;11.108;2022-07-18T02:12:58;99322.13;;;13.74;73.25
34586;BME280;20816;50.950;11.108;2022-07-18T02:15:24;99321.22;;;13.77;72.49
34586;BME280;20816;50.950;11.108;2022-07-18T02:17:51;99311.69;;;13.69;72.22
34586;BME280;20816;50.950;11.108;2022-07-18T02:20:18;99310.13;;;13.59;72.24
34586;BME280;20816;50.950;11.108;2022-07-18T02:22:44;99311.34;;;13.46;73.13
34586;BME280;20816;50.950;11.108;2022-07-18T02:25:12;99322.91;;;13.40;73.46
34586;BME280;20816;50.950;11.108;2022-07-18T02:27:38;99318.69;;;13.32;74.03
34586;BME280;20816;50.950;11.108;2022-07-18T02:30:07;99308.13;;;13.32;74.31
34586;BME280;20816;50.950;11.108;2022-07-18T02:32:35;99300.44;;;13.18;74.84
34586;BME280;20816;50.950;11.108;2022-07-18T02:35:06;99297.47;;;13.35;73.89
34586;BME280;20816;50.950;11.108;2022-07-18T02:37:33;99298.34;;;13.35;74.50
34586;BME280;20816;50.950;11.108;2022-07-18T02:40:00;99292.19;;;13.35;74.62
34586;BME280;20816;50.950;11.108;2022-07-18T02:42:26;99292.06;;;13.41;74.39
34586;BME280;20816;50.950;11.108;2022-07-18T02:44:54;99286.00;;;13.37;74.50
34586;BME280;20816;50.950;11.108;2022-07-18T02:47:20;99295.94;;;13.25;74.49
34586;BME280;20816;50.950;11.108;2022-07-18T02:49:47;99282.00;;;13.16;74.81
34586;BME280;20816;50.950;11.108;2022-07-18T02:52:14;99283.81;;;13.14;75.44
34586;BME280;20816;50.950;11.108;2022-07-18T02:54:40;99275.00;;;13.15;75.50
34586;BME280;20816;50.950;11.108;2022-07-18T02:57:07;99278.75;;;13.05;75.34
34586;BME280;20816;50.950;11.108;2022-07-18T02:59:34;99290.91;;;13.12;74.86
34586;BME280;20816;50.950;11.108;2022-07-18T03:02:01;99290.91;;;13.12;74.13
34586;BME280;20816;50.950;11.108;2022-07-18T03:04:28;99282.78;;;13.23;74.06
34586;BME280;20816;50.950;11.108;2022-07-18T03:06:55;99272.16;;;13.26;74.62
34586;BME280;20816;50.950;11.108;2022-07-18T03:09:22;99285.34;;;13.28;74.33
34586;BME280;20816;50.950;11.108;2022-07-18T03:11:49;99295.91;;;13.28;74.66
34586;BME280;20816;50.950;11.108;2022-07-18T03:14:15;99288.94;;;13.24;74.68
34586;BME280;20816;50.950;11.108;2022-07-18T03:16:42;99291.78;;;13.13;74.89
34586;BME280;20816;50.950;11.108;2022-07-18T03:19:09;99294.56;;;13.05;75.10
34586;BME280;20816;50.950;11.108;2022-07-18T03:21:36;99299.97;;;12.99;75.18
34586;BME280;20816;50.950;11.108;2022-07-18T03:24:03;99297.41;;;12.96;75.73
34586;BME280;20816;50.950;11.108;2022-07-18T03:26:30;99291.25;;;12.94;75.47
34586;BME280;20816;50.950;11.108;2022-07-18T03:28:57;99297.41;;;12.95;75.90
34586;BME280;20816;50.950;11.108;2022-07-18T03:31:24;99309.81;;;12.91;76.65
34586;BME280;20816;50.950;11.108;2022-07-18T03:33:51;99309.88;;;12.86;76.92
34586;BME280;20816;50.950;11.108;2022-07-18T03:36:17;99308.22;;;12.82;76.62
34586;BME280;20816;50.950;11.108;2022-07-18T03:38:44;99313.66;;;12.75;77.10
34586;BME280;20816;50.950;11.108;2022-07-18T03:41:11;99323.53;;;12.63;77.56
34586;BME280;20816;50.950;11.108;2022-07-18T03:43:39;99326.28;;;12.57;78.51
34586;BME280;20816;50.950;11.108;2022-07-18T03:46:07;99319.13;;;12.64;78.14
34586;BME280;20816;50.950;11.108;2022-07-18T03:48:34;99316.63;;;12.56;77.93
34586;BME280;20816;50.950;11.108;2022-07-18T03:51:02;99316.75;;;12.50;78.68
34586;BME280;20816;50.950;11.108;2022-07-18T03:53:30;99306.19;;;12.50;78.62
34586;BME280;20816;50.950;11.108;2022-07-18T03:55:57;99302.44;;;12.63;78.36
34586;BME280;20816;50.950;11.108;2022-07-18T03:58:24;99298.63;;;12.80;77.81
34586;BME280;20816;50.950;11.108;2022-07-18T04:00:50;99302.84;;;12.88;78.99
34586;BME280;20816;50.950;11.108;2022-07-18T04:03:17;99304.38;;;12.99;76.98
34586;BME280;20816;50.950;11.108;2022-07-18T04:05:46;99304.13;;;13.11;76.23
34586;BME280;20816;50.950;11.108;2022-07-18T04:08:13;99304.31;;;13.03;77.45
34586;BME280;20816;50.950;11.108;2022-07-18T04:10:40;99299.97;;;12.99;77.21
34586;BME280;20816;50.950;11.108;2022-07-18T04:13:07;99297.28;;;13.01;77.29
34586;BME280;20816;50.950;11.108;2022-07-18T04:15:36;99294.78;;;12.96;77.34
34586;BME280;20816;50.950;11.108;2022-07-18T04:18:07;99294.56;;;13.05;76.68
34586;BME280;20816;50.950;11.108;2022-07-18T04:20:35;99293.25;;;13.28;75.19
34586;BME280;20816;50.950;11.108;2022-07-18T04:23:04;99288.25;;;13.54;74.66
34586;BME280;20816;50.950;11.108;2022-07-18T04:25:39;99286.09;;;13.71;75.72
34586;BME280;20816;50.950;11.108;2022-07-18T04:28:08;99285.97;;;13.78;76.10
34586;BME280;20816;50.950;11.108;2022-07-18T04:30:37;99286.47;;;13.92;75.32
34586;BME280;20816;50.950;11.108;2022-07-18T04:33:06;99280.13;;;13.99;74.92
34586;BME280;20816;50.950;11.108;2022-07-18T04:35:33;99289.63;;;14.08;74.98
34586;BME280;20816;50.950;11.108;2022-07-18T04:38:05;99281.53;;;14.14;75.13
34586;BME280;20816;50.950;11.108;2022-07-18T04:40:32;99279.47;;;14.26;74.63
34586;BME280;20816;50.950;11.108;2022-07-18T04:42:59;99278.34;;;14.35;74.54
34586;BME280;20816;50.950;11.108;2022-07-18T04:45:26;99281.72;;;14.40;74.97
34586;BME280;20816;50.950;11.108;2022-07-18T04:47:53;99281.50;;;14.51;74.75
34586;BME280;20816;50.950;11.108;2022-07-18T04:50:22;99279.03;;;14.76;74.17
34586;BME280;20816;50.950;11.108;2022-07-18T04:52:50;99287.31;;;14.95;74.13
34586;BME280;20816;50.950;11.108;2022-07-18T04:55:19;99282.34;;;15.15;72.48
34586;BME280;20816;50.950;11.108;2022-07-18T04:57:48;99280.59;;;15.43;70.70
34586;BME280;20816;50.950;11.108;2022-07-18T05:00:17;99277.81;;;15.76;68.82
34586;BME280;20816;50.950;11.108;2022-07-18T05:02:47;99274.13;;;16.08;68.14
34586;BME280;20816;50.950;11.108;2022-07-18T05:05:15;99273.91;;;16.41;68.63
34586;BME280;20816;50.950;11.108;2022-07-18T05:07:43;99276.44;;;16.70;69.09
34586;BME280;20816;50.950;11.108;2022-07-18T05:10:12;99273.78;;;16.94;67.92
34586;BME280;20816;50.950;11.108;2022-07-18T05:12:42;99267.47;;;17.21;67.41
34586;BME280;20816;50.950;11.108;2022-07-18T05:15:11;99281.47;;;17.48;66.72
34586;BME280;20816;50.950;11.108;2022-07-18T05:17:39;99285.16;;;17.68;66.97
34586;BME280;20816;50.950;11.108;2022-07-18T05:20:08;99270.91;;;17.92;66.03
34586;BME280;20816;50.950;11.108;2022-07-18T05:22:36;99268.09;;;18.17;64.99
34586;BME280;20816;50.950;11.108;2022-07-18T05:25:04;99274.19;;;18.41;64.35
34586;BME280;20816;50.950;11.108;2022-07-18T05:27:32;99275.44;;;18.73;62.90
34586;BME280;20816;50.950;11.108;2022-07-18T05:29:58;99282.16;;;19.02;61.34
34586;BME280;20816;50.950;11.108;2022-07-18T05:32:26;99281.38;;;19.38;59.79
34586;BME280;20816;50.950;11.108;2022-07-18T05:34:53;99275.91;;;19.41;57.89
34586;BME280;20816;50.950;11.108;2022-07-18T05:37:19;99279.88;;;19.70;57.56
34586;BME280;20816;50.950;11.108;2022-07-18T05:39:46;99287.34;;;19.99;57.29
34586;BME280;20816;50.950;11.108;2022-07-18T05:42:13;99285.28;;;20.40;56.94
34586;BME280;20816;50.950;11.108;2022-07-18T05:44:40;99278.63;;;20.66;56.76
34586;BME280;20816;50.950;11.108;2022-07-18T05:47:06;99280.19;;;20.70;56.49
34586;BME280;20816;50.950;11.108;2022-07-18T05:49:33;99279.78;;;20.95;55.65
34586;BME280;20816;50.950;11.108;2022-07-18T05:52:00;99287.44;;;21.19;55.02
34586;BME280;20816;50.950;11.108;2022-07-18T05:54:27;99275.16;;;21.48;53.84
34586;BME280;20816;50.950;11.108;2022-07-18T05:56:54;99280.31;;;21.82;53.24
34586;BME280;20816;50.950;11.108;2022-07-18T05:59:20;99280.72;;;22.22;51.67
34586;BME280;20816;50.950;11.108;2022-07-18T06:01:48;99280.34;;;22.44;51.31
34586;BME280;20816;50.950;11.108;2022-07-18T06:04:15;99276.28;;;22.37;50.30
34586;BME280;20816;50.950;11.108;2022-07-18T06:06:42;99273.31;;;22.57;50.90
34586;BME280;20816;50.950;11.108;2022-07-18T06:09:10;99268.75;;;22.88;51.22
34586;BME280;20816;50.950;11.108;2022-07-18T06:11:37;99273.56;;;23.26;50.04
34586;BME280;20816;50.950;11.108;2022-07-18T06:14:04;99271.81;;;23.53;49.42
34586;BME280;20816;50.950;11.108;2022-07-18T06:16:31;99270.41;;;23.33;49.95
34586;BME280;20816;50.950;11.108;2022-07-18T06:18:58;99272.50;;;23.98;48.63
34586;BME280;20816;50.950;11.108;2022-07-18T06:21:25;99277.34;;;24.20;46.95
34586;BME280;20816;50.950;11.108;2022-07-18T06:23:52;99276.47;;;24.59;47.12
34586;BME280;20816;50.950;11.108;2022-07-18T06:26:19;99281.91;;;24.84;47.28
34586;BME280;20816;50.950;11.108;2022-07-18T06:28:47;99279.16;;;24.59;47.36
34586;BME280;20816;50.950;11.108;2022-07-18T06:31:14;99281.66;;;24.62;47.37
34586;BME280;20816;50.950;11.108;2022-07-18T06:33:44;99282.84;;;24.83;46.79
34586;BME280;20816;50.950;11.108;2022-07-18T06:36:11;99282.19;;;24.67;46.35
34586;BME280;20816;50.950;11.108;2022-07-18T06:38:40;99282.63;;;24.61;47.16
34586;BME280;20816;50.950;11.108;2022-07-18T06:41:07;99276.88;;;25.05;46.80
34586;BME280;20816;50.950;11.108;2022-07-18T06:43:36;99279.88;;;25.26;45.69
34586;BME280;20816;50.950;11.108;2022-07-18T06:46:04;99276.53;;;25.35;45.05
34586;BME280;20816;50.950;11.108;2022-07-18T06:48:30;99272.34;;;25.68;44.95
34586;BME280;20816;50.950;11.108;2022-07-18T06:51:04;99267.25;;;26.13;44.45
34586;BME280;20816;50.950;11.108;2022-07-18T06:53:32;99264.44;;;26.38;43.47
34586;BME280;20816;50.950;11.108;2022-07-18T06:56:00;99261.81;;;26.25;44.20
34586;BME280;20816;50.950;11.108;2022-07-18T06:58:29;99273.13;;;26.66;43.25
34586;BME280;20816;50.950;11.108;2022-07-18T07:01:00;99275.94;;;26.64;43.02
34586;BME280;20816;50.950;11.108;2022-07-18T07:03:27;99271.69;;;26.73;42.70
34586;BME280;20816;50.950;11.108;2022-07-18T07:05:53;99268.66;;;26.53;43.02
34586;BME280;20816;50.950;11.108;2022-07-18T07:08:20;99270.38;;;27.01;42.49
34586;BME280;20816;50.950;11.108;2022-07-18T07:10:47;99266.59;;;27.03;42.04
34586;BME280;20816;50.950;11.108;2022-07-18T07:13:13;99271.94;;;26.81;42.41
34586;BME280;20816;50.950;11.108;2022-07-18T07:15:43;99269.00;;;26.84;42.52
34586;BME280;20816;50.950;11.108;2022-07-18T07:18:10;99272.50;;;27.42;41.84
34586;BME280;20816;50.950;11.108;2022-07-18T07:20:37;99272.97;;;27.81;41.04
34586;BME280;20816;50.950;11.108;2022-07-18T07:23:04;99262.66;;;28.18;41.21
34586;BME280;20816;50.950;11.108;2022-07-18T07:25:35;99261.78;;;28.29;40.30
34586;BME280;20816;50.950;11.108;2022-07-18T07:28:02;99260.31;;;28.36;41.14
34586;BME280;20816;50.950;11.108;2022-07-18T07:30:29;99262.28;;;28.55;41.41
34586;BME280;20816;50.950;11.108;2022-07-18T07:32:56;99258.28;;;29.12;40.26
34586;BME280;20816;50.950;11.108;2022-07-18T07:35:23;99254.91;;;29.50;39.66
34586;BME280;20816;50.950;11.108;2022-07-18T07:37:53;99254.31;;;29.56;39.95
34586;BME280;20816;50.950;11.108;2022-07-18T07:40:20;99259.66;;;29.37;39.45
34586;BME280;20816;50.950;11.108;2022-07-18T07:42:47;99251.13;;;29.41;39.77
34586;BME280;20816;50.950;11.108;2022-07-18T07:45:14;99249.88;;;29.15;39.91
34586;BME280;20816;50.950;11.108;2022-07-18T07:47:41;99248.50;;;29.30;39.53
34586;BME280;20816;50.950;11.108;2022-07-18T07:50:08;99256.06;;;29.57;39.22
34586;BME280;20816;50.950;11.108;2022-07-18T07:52:36;99245.81;;;29.70;38.73
34586;BME280;20816;50.950;11.108;2022-07-18T07:55:04;99250.50;;;30.18;38.45
34586;BME280;20816;50.950;11.108;2022-07-18T07:57:32;99244.41;;;29.76;38.35
34586;BME280;20816;50.950;11.108;2022-07-18T08:00:02;99247.63;;;30.29;38.83
34586;BME280;20816;50.950;11.108;2022-07-18T08:02:28;99238.19;;;30.53;38.45
34586;BME280;20816;50.950;11.108;2022-07-18T08:04:55;99239.75;;;30.07;38.36
34586;BME280;20816;50.950;11.108;2022-07-18T08:07:22;99234.91;;;30.88;37.26
34586;BME280;20816;50.950;11.108;2022-07-18T08:09:50;99236.81;;;31.15;36.46
34586;BME280;20816;50.950;11.108;2022-07-18T08:12:17;99230.38;;;31.16;37.26
34586;BME280;20816;50.950;11.108;2022-07-18T08:14:43;99227.34;;;31.19;36.78
34586;BME280;20816;50.950;11.108;2022-07-18T08:17:10;99219.91;;;30.64;37.04
34586;BME280;20816;50.950;11.108;2022-07-18T08:19:37;99221.63;;;30.75;37.12
34586;BME280;20816;50.950;11.108;2022-07-18T08:22:04;99223.22;;;31.15;37.40
34586;BME280;20816;50.950;11.108;2022-07-18T08:24:32;99215.88;;;31.62;37.03
34586;BME280;20816;50.950;11.108;2022-07-18T08:26:59;99212.59;;;31.86;36.97
34586;BME280;20816;50.950;11.108;2022-07-18T08:29:25;99208.28;;;31.38;36.49
34586;BME280;20816;50.950;11.108;2022-07-18T08:32:12;99216.66;;;31.08;37.55
34586;BME280;20816;50.950;11.108;2022-07-18T08:34:39;99207.16;;;31.31;35.10
34586;BME280;20816;50.950;11.108;2022-07-18T08:37:06;99203.69;;;31.94;35.40
34586;BME280;20816;50.950;11.108;2022-07-18T08:39:33;99203.72;;;32.55;33.50
34586;BME280;20816;50.950;11.108;2022-07-18T08:42:00;99204.97;;;32.07;33.74
34586;BME280;20816;50.950;11.108;2022-07-18T08:44:28;99200.94;;;32.12;34.87
34586;BME280;20816;50.950;11.108;2022-07-18T08:46:57;99204.28;;;32.23;34.28
34586;BME280;20816;50.950;11.108;2022-07-18T08:49:24;99209.19;;;32.20;34.41
34586;BME280;20816;50.950;11.108;2022-07-18T08:51:51;99205.94;;;32.34;34.41
34586;BME280;20816;50.950;11.108;2022-07-18T08:54:17;99205.75;;;31.82;34.76
34586;BME280;20816;50.950;11.108;2022-07-18T08:56:48;99214.66;;;32.63;34.21
34586;BME280;20816;50.950;11.108;2022-07-18T08:59:15;99201.00;;;32.99;33.42
34586;BME280;20816;50.950;11.108;2022-07-18T09:01:41;99201.75;;;34.10;32.46
34586;BME280;20816;50.950;11.108;2022-07-18T09:04:08;99202.09;;;34.23;32.17
34586;BME280;20816;50.950;11.108;2022-07-18T09:06:48;99210.81;;;34.35;31.67
34586;BME280;20816;50.950;11.108;2022-07-18T09:09:16;99201.47;;;34.62;31.62
34586;BME280;20816;50.950;11.108;2022-07-18T09:11:53;99203.84;;;34.41;32.00
34586;BME280;20816;50.950;11.108;2022-07-18T09:14:33;99197.94;;;33.87;32.20
34586;BME280;20816;50.950;11.108;2022-07-18T09:17:21;99195.66;;;33.58;33.01
34586;BME280;20816;50.950;11.108;2022-07-18T09:20:09;99195.59;;;33.92;32.79
34586;BME280;20816;50.950;11.108;2022-07-18T09:22:40;99199.75;;;33.70;32.73
34586;BME280;20816;50.950;11.108;2022-07-18T09:25:19;99196.63;;;33.91;32.44
34586;BME280;20816;50.950;11.108;2022-07-18T09:27:52;99194.00;;;33.73;32.71
34586;BME280;20816;50.950;11.108;2022-07-18T09:30:32;99190.59;;;33.87;32.46
34586;BME280;20816;50.950;11.108;2022-07-18T09:35:31;99207.56;;;34.07;32.46
34586;BME280;20816;50.950;11.108;2022-07-18T09:40:32;99197.13;;;34.03;32.74
34586;BME280;20816;50.950;11.108;2022-07-18T09:43:05;99198.34;;;34.08;32.26
34586;BME280;20816;50.950;11.108;2022-07-18T09:45:37;99196.00;;;34.46;32.23
34586;BME280;20816;50.950;11.108;2022-07-18T09:48:15;99197.97;;;34.03;32.81
34586;BME280;20816;50.950;11.108;2022-07-18T09:50:50;99196.34;;;33.68;32.98
34586;BME280;20816;50.950;11.108;2022-07-18T09:56:03;99195.75;;;33.90;32.62
34586;BME280;20816;50.950;11.108;2022-07-18T09:58:35;99198.25;;;33.76;32.85
34586;BME280;20816;50.950;11.108;2022-07-18T10:01:04;99199.88;;;34.27;32.32
34586;BME280;20816;50.950;11.108;2022-07-18T10:03:34;99194.63;;;34.58;31.52
34586;BME280;20816;50.950;11.108;2022-07-18T10:06:02;99191.50;;;34.37;31.86
34586;BME280;20816;50.950;11.108;2022-07-18T10:08:31;99193.56;;;34.67;31.96
34586;BME280;20816;50.950;11.108;2022-07-18T10:11:00;99195.13;;;35.42;31.11
34586;BME280;20816;50.950;11.108;2022-07-18T10:13:28;99184.16;;;34.94;31.50
34586;BME280;20816;50.950;11.108;2022-07-18T10:15:56;99181.22;;;35.51;31.79
34586;BME280;20816;50.950;11.108;2022-07-18T10:18:27;99180.06;;;35.46;31.27
34586;BME280;20816;50.950;11.108;2022-07-18T10:20:58;99178.28;;;35.61;30.79
34586;BME280;20816;50.950;11.108;2022-07-18T10:23:34;99181.50;;;35.96;30.92
34586;BME280;20816;50.950;11.108;2022-07-18T10:26:11;99170.28;;;36.36;30.35
34586;BME280;20816;50.950;11.108;2022-07-18T10:31:37;99170.50;;;35.33;31.50
34586;BME280;20816;50.950;11.108;2022-07-18T10:57:33;99164.19;;;36.26;30.94
34586;BME280;20816;50.950;11.108;2022-07-18T11:00:06;99161.09;;;36.67;30.40
34586;BME280;20816;50.950;11.108;2022-07-18T11:02:41;99170.16;;;36.82;29.82
34586;BME280;20816;50.950;11.108;2022-07-18T11:18:23;99148.41;;;37.54;29.65
34586;BME280;20816;50.950;11.108;2022-07-18T11:20:50;99137.06;;;37.28;29.48
34586;BME280;20816;50.950;11.108;2022-07-18T11:23:18;99127.72;;;36.78;30.34
34586;BME280;20816;50.950;11.108;2022-07-18T11:25:47;99134.28;;;36.39;30.63
34586;BME280;20816;50.950;11.108;2022-07-18T11:28:25;99140.44;;;35.42;31.16
34586;BME280;20816;50.950;11.108;2022-07-18T11:31:18;99136.72;;;36.34;30.67
34586;BME280;20816;50.950;11.108;2022-07-18T11:33:48;99138.13;;;35.84;31.30
34586;BME280;20816;50.950;11.108;2022-07-18T11:36:21;99134.97;;;36.41;30.23
34586;BME280;20816;50.950;11.108;2022-07-18T11:38:57;99133.09;;;36.19;30.59
34586;BME280;20816;50.950;11.108;2022-07-18T11:41:24;99131.34;;;37.08;30.32
34586;BME280;20816;50.950;11.108;2022-07-18T11:43:52;99133.03;;;37.09;30.20
34586;BME280;20816;50.950;11.108;2022-07-18T11:46:21;99134.06;;;37.23;29.94
34586;BME280;20816;50.950;11.108;2022-07-18T11:49:01;99127.00;;;36.99;29.65
34586;BME280;20816;50.950;11.108;2022-07-18T11:51:43;99124.53;;;37.04;29.85
34586;BME280;20816;50.950;11.108;2022-07-18T11:54:11;99127.78;;;36.40;30.41
34586;BME280;20816;50.950;11.108;2022-07-18T11:56:48;99127.16;;;36.30;30.86
34586;BME280;20816;50.950;11.108;2022-07-18T11:59:15;99125.97;;;35.87;30.77
34586;BME280;20816;50.950;11.108;2022-07-18T12:01:43;99117.09;;;35.85;30.61
34586;BME280;20816;50.950;11.108;2022-07-18T12:04:18;99116.78;;;35.80;30.84
34586;BME280;20816;50.950;11.108;2022-07-18T12:06:45;99112.56;;;36.15;30.46
34586;BME280;20816;50.950;11.108;2022-07-18T12:09:25;99109.03;;;36.29;30.31
34586;BME280;20816;50.950;11.108;2022-07-18T12:11:52;99117.06;;;36.31;30.08
34586;BME280;20816;50.950;11.108;2022-07-18T12:14:39;99106.53;;;36.42;30.04
34586;BME280;20816;50.950;11.108;2022-07-18T12:17:06;99101.19;;;36.26;29.87
34586;BME280;20816;50.950;11.108;2022-07-18T12:19:38;99098.50;;;36.56;29.68
34586;BME280;20816;50.950;11.108;2022-07-18T12:22:10;99084.53;;;36.80;29.75
34586;BME280;20816;50.950;11.108;2022-07-18T12:27:19;99087.75;;;36.69;30.00
34586;BME280;20816;50.950;11.108;2022-07-18T12:30:07;99076.50;;;36.64;30.15
34586;BME280;20816;50.950;11.108;2022-07-18T12:32:53;99078.66;;;35.78;30.79
34586;BME280;20816;50.950;11.108;2022-07-18T12:35:23;99078.53;;;35.49;30.98
34586;BME280;20816;50.950;11.108;2022-07-18T12:40:25;99069.34;;;35.42;30.77
34586;BME280;20816;50.950;11.108;2022-07-18T12:43:10;99057.75;;;35.85;30.43
34586;BME280;20816;50.950;11.108;2022-07-18T12:45:38;99052.94;;;35.87;30.69
34586;BME280;20816;50.950;11.108;2022-07-18T12:48:06;99060.16;;;35.80;30.73
34586;BME280;20816;50.950;11.108;2022-07-18T12:50:34;99061.59;;;36.14;30.74
34586;BME280;20816;50.950;11.108;2022-07-18T12:53:01;99054.19;;;36.00;30.39
34586;BME280;20816;50.950;11.108;2022-07-18T12:55:28;99054.81;;;36.10;30.51
34586;BME280;20816;50.950;11.108;2022-07-18T12:57:59;99052.34;;;35.77;30.71
34586;BME280;20816;50.950;11.108;2022-07-18T13:00:26;99047.66;;;35.86;30.76
34586;BME280;20816;50.950;11.108;2022-07-18T13:02:53;99041.22;;;35.56;30.71
34586;BME280;20816;50.950;11.108;2022-07-18T13:05:22;99039.63;;;35.61;31.27
34586;BME280;20816;50.950;11.108;2022-07-18T13:07:49;99040.97;;;35.65;31.18
34586;BME280;20816;50.950;11.108;2022-07-18T13:10:16;99047.94;;;34.75;31.40
34586;BME280;20816;50.950;11.108;2022-07-18T13:12:42;99047.44;;;34.71;31.76
34586;BME280;20816;50.950;11.108;2022-07-18T13:15:09;99048.16;;;35.44;31.03
34586;BME280;20816;50.950;11.108;2022-07-18T13:17:36;99045.81;;;35.78;30.98
34586;BME280;20816;50.950;11.108;2022-07-18T13:20:03;99045.44;;;35.81;31.12
34586;BME280;20816;50.950;11.108;2022-07-18T13:22:30;99043.94;;;35.56;30.92
34586;BME280;20816;50.950;11.108;2022-07-18T13:25:07;99036.59;;;35.79;30.73
34586;BME280;20816;50.950;11.108;2022-07-18T13:27:35;99028.31;;;35.87;30.64
34586;BME280;20816;50.950;11.108;2022-07-18T13:30:04;99036.09;;;35.99;30.52
34586;BME280;20816;50.950;11.108;2022-07-18T13:32:32;99021.84;;;35.34;31.05
34586;BME280;20816;50.950;11.108;2022-07-18T13:34:59;99026.09;;;35.45;30.59
34586;BME280;20816;50.950;11.108;2022-07-18T13:37:25;99024.69;;;35.18;31.66
34586;BME280;20816;50.950;11.108;2022-07-18T13:39:53;99023.75;;;35.57;31.55
34586;BME280;20816;50.950;11.108;2022-07-18T13:42:19;99013.69;;;35.03;32.05
34586;BME280;20816;50.950;11.108;2022-07-18T13:44:46;99017.28;;;35.04;31.94
34586;BME280;20816;50.950;11.108;2022-07-18T13:47:14;99020.00;;;35.04;31.28
34586;BME280;20816;50.950;11.108;2022-07-18T13:49:41;99015.06;;;35.30;31.78